Terminal Aerodrome Forecast
Issued by NWS Portland, ME

Home | Current Version | Previous Version | Text Only | Print | Product List | Glossary On
Versions: 1 2 3 4 5 6 7 8 9 10 11 12 13 14 15 16 17 18 19 20 21
812
FTUS41 KGYX 280149 AAA
TAFPWM
TAF AMD
KPWM 280149Z 2802/2824 18005KT 6SM BR BKN050
      TEMPO 2802/2803 4SM -SHRA BR
     FM280500 VRB03KT 4SM BR SCT080
     FM281300 27009KT P6SM SCT050=

USA.gov is the U.S. government's official web portal to all federal, state and local government web resources and services.